Time;durP1;ratioP1;P1;durP2;ratioP2;P2;SDS_P1;SDS_P2;PMS_P1;PMS_P2;Temp;Humidity;BMP_temperature;BMP_pressure;BME280_temperature;BME280_humidity;BME280_pressure;Samples;Min_cycle;Max_cycle;Signal;HPM_P1;HPM_P2
2022/01/26 00:06:35;;;;;;;36.30;13.52;;;;;;;-149.78;100.00;50526.22;5045012;28;20036;-64
2022/01/26 00:09:03;;;;;;;35.10;11.90;;;;;;;-149.78;100.00;50553.59;5045303;28;20037;-64
2022/01/26 00:11:31;;;;;;;30.33;11.13;;;;;;;-149.78;100.00;50510.56;5045469;28;20115;-65
2022/01/26 00:13:58;;;;;;;36.47;12.07;;;;;;;-149.78;100.00;50545.75;5065835;28;20040;-67
2022/01/26 00:16:37;;;;;;;35.70;13.43;;;;;;;-149.78;100.00;50530.13;5056680;28;21093;-67
2022/01/26 00:19:05;;;;;;;30.13;11.25;;;;;;;-149.78;100.00;50549.69;5049741;28;20032;-67
2022/01/26 00:21:39;;;;;;;28.10;10.13;;;;;;;-149.78;100.00;50545.75;5050577;28;20029;-67
2022/01/26 00:29:40;;;;;;;30.17;10.35;;;;;;;-149.78;100.00;50534.03;5050040;28;20060;-64
2022/01/26 00:40:42;;;;;;;27.05;9.52;;;;;;;-149.78;100.00;50557.50;5048077;28;20047;-65
2022/01/26 00:43:21;;;;;;;30.73;10.07;;;;;;;-149.78;100.00;50534.03;5047512;28;20064;-67
2022/01/26 00:45:55;;;;;;;32.10;10.90;;;;;;;-149.78;100.00;50557.50;5046694;28;20040;-67
2022/01/26 00:48:22;;;;;;;31.13;10.77;;;;;;;-149.78;100.00;50549.69;5029595;28;20043;-67
2022/01/26 00:50:51;;;;;;;27.77;9.80;;;;;;;-149.78;100.00;50559.47;5048143;28;20040;-64
2022/01/26 00:53:24;;;;;;;33.60;11.02;;;;;;;-149.78;100.00;50551.63;5048857;28;20025;-66
2022/01/26 00:55:50;;;;;;;32.15;10.90;;;;;;;-149.78;100.00;50545.75;5049672;28;20040;-66
2022/01/26 00:58:16;;;;;;;34.65;11.10;;;;;;;-149.78;100.00;50545.75;5049208;28;20032;-66
2022/01/26 01:00:42;;;;;;;32.03;12.15;;;;;;;-149.78;100.00;50491.00;5031953;28;20044;-66
2022/01/26 01:03:07;;;;;;;34.00;10.77;;;;;;;-149.78;100.00;50526.22;5048847;28;20044;-66
2022/01/26 01:05:39;;;;;;;38.17;10.88;;;;;;;-149.78;100.00;50545.75;5048819;28;21656;-67
2022/01/26 01:08:10;;;;;;;35.33;12.38;;;;;;;-149.78;100.00;50541.84;5049291;28;20033;-66
2022/01/26 01:10:36;;;;;;;33.25;12.55;;;;;;;-149.78;100.00;50553.59;5048463;28;20237;-64
2022/01/26 01:13:02;;;;;;;33.25;11.15;;;;;;;-149.78;100.00;50557.50;5049590;28;20032;-66
2022/01/26 01:15:29;;;;;;;35.58;12.63;;;;;;;-149.78;100.00;50524.25;5049455;28;20483;-67
2022/01/26 01:31:44;;;;;;;45.72;15.25;;;;;;;-149.78;100.00;50522.28;5048361;28;20036;-67
2022/01/26 01:34:11;;;;;;;42.50;13.65;;;;;;;-149.78;100.00;50549.69;5048382;28;22234;-66
2022/01/26 01:36:41;;;;;;;41.05;14.25;;;;;;;-149.78;100.00;50537.94;5048579;28;20507;-67
2022/01/26 01:39:08;;;;;;;39.47;13.77;;;;;;;-149.78;100.00;50561.41;5048529;28;20062;-67
2022/01/26 01:41:37;;;;;;;36.00;12.23;;;;;;;-149.78;100.00;50547.72;5047763;28;20024;-66
2022/01/26 01:44:04;;;;;;;38.70;13.82;;;;;;;-149.78;100.00;50530.13;5048126;28;20064;-66
2022/01/26 01:46:30;;;;;;;37.45;11.27;;;;;;;-149.78;100.00;50553.59;5047284;28;20395;-66
2022/01/26 01:48:56;;;;;;;31.13;10.88;;;;;;;-149.78;100.00;50518.38;5047374;28;20032;-67
2022/01/26 01:51:28;;;;;;;30.60;10.48;;;;;;;-149.78;100.00;50541.84;5046241;28;20028;-66
2022/01/26 01:53:55;;;;;;;35.40;11.57;;;;;;;-149.78;100.00;50534.03;5029665;28;20037;-66
2022/01/26 01:56:24;;;;;;;29.88;10.45;;;;;;;-149.78;100.00;50545.75;5047518;28;20032;-67
2022/01/26 01:58:50;;;;;;;29.73;9.40;;;;;;;-149.78;100.00;50545.75;5047884;28;20062;-66
2022/01/26 02:01:16;;;;;;;31.85;9.73;;;;;;;-149.78;100.00;50530.13;5048853;28;20070;-66
2022/01/26 02:03:42;;;;;;;25.55;9.75;;;;;;;-149.78;100.00;50545.75;5047676;28;20119;-67
2022/01/26 02:06:08;;;;;;;33.08;10.27;;;;;;;-149.78;100.00;50534.03;5046643;28;20040;-66
2022/01/26 02:08:34;;;;;;;28.40;10.77;;;;;;;-149.78;100.00;50526.22;5046954;28;20040;-67
2022/01/26 02:10:59;;;;;;;30.60;9.93;;;;;;;-149.78;100.00;50534.03;5046827;28;20042;-67
2022/01/26 02:13:33;;;;;;;29.67;11.43;;;;;;;-149.78;100.00;50537.94;5046456;28;20028;-67
2022/01/26 02:54:14;;;;;;;33.70;13.43;;;;;;;-149.78;100.00;50530.13;5043677;28;20193;-64
2022/01/26 03:02:02;;;;;;;28.67;11.77;;;;;;;-149.78;100.00;50516.44;5041055;28;20465;-64
2022/01/26 03:07:13;;;;;;;36.15;11.50;;;;;;;-149.78;100.00;50534.03;5040711;28;20110;-63
2022/01/26 03:09:46;;;;;;;31.75;12.50;;;;;;;-149.78;100.00;50534.03;5020131;28;20036;-64
2022/01/26 03:12:17;;;;;;;;;;;;;;;-149.78;100.00;50545.75;5042143;28;20032;-64
2022/01/26 03:14:54;;;;;;;28.90;12.13;;;;;;;-149.78;100.00;50522.28;5044714;28;19970;-64
2022/01/26 03:19:50;;;;;;;28.83;11.63;;;;;;;-149.78;100.00;50537.94;5043730;28;20041;-64
2022/01/26 03:33:24;;;;;;;33.63;11.75;;;;;;;-149.78;100.00;50530.13;5044472;28;20399;-64
2022/01/26 03:35:55;;;;;;;35.58;13.75;;;;;;;-149.78;100.00;50528.16;5043346;28;20460;-63
2022/01/26 03:38:41;;;;;;;34.53;11.73;;;;;;;-149.78;100.00;50530.13;4988836;28;1127894;-64
2022/01/26 03:41:17;;;;;;;29.02;11.73;;;;;;;-149.78;100.00;50522.28;5044373;28;20068;-64
2022/01/26 03:43:43;;;;;;;31.73;11.13;;;;;;;-149.78;100.00;50545.75;5044458;28;20037;-64
2022/01/26 03:46:09;;;;;;;31.80;10.77;;;;;;;-149.78;100.00;50553.59;5039669;28;20028;-64
2022/01/26 03:48:34;;;;;;;29.10;11.52;;;;;;;-149.78;100.00;50555.53;5041322;28;20102;-64
2022/01/26 03:51:02;;;;;;;30.10;10.57;;;;;;;-149.78;100.00;50506.66;5023753;28;20045;-64
2022/01/26 03:53:28;;;;;;;30.70;11.00;;;;;;;-149.78;100.00;50522.28;5040979;28;20048;-64
2022/01/26 03:55:54;;;;;;;34.15;11.02;;;;;;;-149.78;100.00;50537.94;5041609;28;20039;-64
2022/01/26 03:58:19;;;;;;;30.05;10.15;;;;;;;-149.78;100.00;50541.84;5039875;28;20040;-64
2022/01/26 04:00:45;;;;;;;30.25;10.65;;;;;;;-149.78;100.00;50522.28;5041757;28;20563;-63
2022/01/26 04:03:11;;;;;;;28.42;10.13;;;;;;;-149.78;100.00;50520.34;5042399;28;20099;-64
2022/01/26 04:05:36;;;;;;;37.67;10.98;;;;;;;-149.78;100.00;50514.47;5043014;28;20032;-64
2022/01/26 04:08:09;;;;;;;29.83;11.15;;;;;;;-149.78;100.00;50569.22;5050349;28;20037;-64
2022/01/26 04:13:00;;;;;;;34.03;11.20;;;;;;;-149.78;100.00;50528.16;5053999;28;20320;-64
2022/01/26 04:15:30;;;;;;;31.75;11.13;;;;;;;-149.78;100.00;50549.69;5046196;28;20040;-64
2022/01/26 04:17:56;;;;;;;29.95;11.32;;;;;;;-149.78;100.00;50528.16;5042259;28;20052;-64
2022/01/26 04:20:26;;;;;;;33.83;10.73;;;;;;;-149.78;100.00;50510.56;5047085;28;20062;-64
2022/01/26 04:23:10;;;;;;;22.58;9.68;;;;;;;-149.78;100.00;50506.66;5049038;28;20734;-64
2022/01/26 04:25:37;;;;;;;25.92;9.57;;;;;;;-149.78;100.00;50555.53;5048039;28;20041;-63
2022/01/26 04:28:07;;;;;;;26.92;9.73;;;;;;;-149.78;100.00;50522.28;5049095;28;20079;-64
2022/01/26 04:30:33;;;;;;;27.05;10.30;;;;;;;-149.78;100.00;50526.22;5049695;28;20029;-64
2022/01/26 04:33:03;;;;;;;32.72;12.20;;;;;;;-149.78;100.00;50510.56;5049426;28;20098;-64
2022/01/26 04:35:29;;;;;;;27.40;10.25;;;;;;;-149.78;100.00;50522.28;5048672;28;20575;-63
2022/01/26 04:40:21;;;;;;;34.20;9.93;;;;;;;-149.78;100.00;50561.41;5049331;28;20103;-64
2022/01/26 04:42:57;;;;;;;32.55;11.15;;;;;;;-149.78;100.00;50520.34;5049127;28;20045;-64
2022/01/26 04:45:23;;;;;;;33.08;11.50;;;;;;;-149.78;100.00;50514.47;5048485;28;20039;-63
2022/01/26 04:47:49;;;;;;;29.08;9.85;;;;;;;-149.78;100.00;50528.16;5048680;28;20036;-64
2022/01/26 04:50:14;;;;;;;26.42;10.40;;;;;;;-149.78;100.00;50573.16;5048773;28;20025;-63
2022/01/26 04:52:45;;;;;;;26.83;10.35;;;;;;;-149.78;100.00;50534.03;5031024;28;20044;-64
2022/01/26 04:55:12;;;;;;;23.42;9.57;;;;;;;-149.78;100.00;50502.75;5049268;28;20040;-64
2022/01/26 04:57:37;;;;;;;30.40;10.68;;;;;;;-149.78;100.00;50526.22;5048842;28;20094;-64
2022/01/26 05:00:06;;;;;;;30.77;9.75;;;;;;;-149.78;100.00;50514.47;5046247;28;20036;-64
2022/01/26 05:02:32;;;;;;;28.60;9.27;;;;;;;-149.78;100.00;50526.22;5048792;28;20040;-64
2022/01/26 05:04:57;;;;;;;24.38;10.65;;;;;;;-149.78;100.00;50522.28;5049116;28;20081;-64
2022/01/26 05:07:23;;;;;;;30.73;10.23;;;;;;;-149.78;100.00;50530.13;5028238;28;20047;-64
2022/01/26 05:09:48;;;;;;;29.60;10.05;;;;;;;-149.78;100.00;50510.56;5044664;28;20452;-64
2022/01/26 05:12:15;;;;;;;27.30;9.60;;;;;;;-149.78;100.00;50549.69;5045982;28;20041;-64
2022/01/26 05:14:43;;;;;;;30.83;10.50;;;;;;;-149.78;100.00;50522.28;5048304;28;20033;-64
2022/01/26 05:17:12;;;;;;;30.88;11.43;;;;;;;-149.78;100.00;50537.94;5046202;28;20039;-63
2022/01/26 05:19:37;;;;;;;32.03;10.82;;;;;;;-149.78;100.00;50502.75;5045683;28;20037;-64
2022/01/26 05:22:03;;;;;;;27.75;10.50;;;;;;;-149.78;100.00;50522.28;5048543;28;20064;-64
2022/01/26 05:24:29;;;;;;;31.15;10.77;;;;;;;-149.78;100.00;50518.38;5046202;28;20214;-63
2022/01/26 05:26:56;;;;;;;23.23;9.60;;;;;;;-149.78;100.00;50530.13;5044759;28;20094;-64
2022/01/26 05:29:22;;;;;;;28.25;10.45;;;;;;;-149.78;100.00;50520.34;5044256;28;20575;-64
2022/01/26 05:31:49;;;;;;;26.92;10.25;;;;;;;-149.78;100.00;50530.13;5043375;28;20028;-63
2022/01/26 05:34:14;;;;;;;28.85;11.40;;;;;;;-149.78;100.00;50526.22;5043327;28;21103;-64
2022/01/26 05:36:41;;;;;;;24.90;10.30;;;;;;;-149.78;100.00;50549.69;5043241;28;20569;-64
2022/01/26 05:39:07;;;;;;;33.70;11.60;;;;;;;-149.78;100.00;50504.69;5043458;28;20060;-63
2022/01/26 05:41:32;;;;;;;29.27;11.63;;;;;;;-149.78;100.00;50494.91;5040791;28;20075;-63
2022/01/26 05:44:00;;;;;;;30.17;12.07;;;;;;;-149.78;100.00;50526.22;5041129;28;20062;-64
2022/01/26 05:46:27;;;;;;;28.25;11.25;;;;;;;-149.78;100.00;50537.94;5041472;28;20689;-64
2022/01/26 05:48:55;;;;;;;31.77;12.63;;;;;;;-149.78;100.00;50506.66;5026987;28;20048;-63
2022/01/26 05:51:20;;;;;;;33.03;13.43;;;;;;;-149.78;100.00;50522.28;5043706;28;20082;-63
2022/01/26 05:53:46;;;;;;;36.55;13.57;;;;;;;-149.78;100.00;50510.56;5044158;28;20033;-63
2022/01/26 05:56:12;;;;;;;33.30;12.98;;;;;;;-149.78;100.00;50530.13;5043570;28;20032;-63
2022/01/26 05:58:37;;;;;;;39.97;13.18;;;;;;;-149.78;100.00;50547.72;5042918;28;20036;-64
2022/01/26 06:01:04;;;;;;;34.45;13.52;;;;;;;-149.78;100.00;50522.28;5044070;28;20033;-64
2022/01/26 06:03:30;;;;;;;36.05;13.25;;;;;;;-149.78;100.00;50526.22;5043319;28;20029;-63
2022/01/26 06:05:57;;;;;;;33.13;13.13;;;;;;;-149.78;100.00;50543.81;5044624;28;20440;-63
2022/01/26 06:08:24;;;;;;;33.63;13.88;;;;;;;-149.78;100.00;50502.75;5044165;28;20051;-63
2022/01/26 06:10:50;;;;;;;36.15;14.20;;;;;;;-149.78;100.00;50520.34;5044542;28;20106;-63
2022/01/26 06:13:17;;;;;;;37.88;13.20;;;;;;;-149.78;100.00;50530.13;5047231;28;20392;-64
2022/01/26 06:15:44;;;;;;;39.55;14.52;;;;;;;-149.78;100.00;50487.09;5045104;28;20021;-63
2022/01/26 06:18:11;;;;;;;37.67;13.50;;;;;;;-149.78;100.00;50498.81;5044306;28;20107;-64
2022/01/26 06:20:37;;;;;;;39.10;15.23;;;;;;;-149.78;100.00;50539.91;5043661;28;20175;-63
2022/01/26 06:23:04;;;;;;;40.42;14.02;;;;;;;-149.78;100.00;50494.91;5043795;28;20040;-64
2022/01/26 06:25:30;;;;;;;35.03;13.93;;;;;;;-149.78;100.00;50530.13;5025697;28;20182;-64
2022/01/26 06:27:58;;;;;;;36.40;14.20;;;;;;;-149.78;100.00;50502.75;5025796;28;20082;-63
2022/01/26 06:30:25;;;;;;;34.22;13.85;;;;;;;-149.78;100.00;50545.75;5043960;28;20098;-64
2022/01/26 06:32:50;;;;;;;34.42;14.20;;;;;;;-149.78;100.00;50530.13;5043476;28;20024;-63
2022/01/26 06:35:16;;;;;;;38.75;14.77;;;;;;;-149.78;100.00;50541.84;5043625;28;20098;-63
2022/01/26 06:37:44;;;;;;;44.15;14.63;;;;;;;-149.78;100.00;50514.47;5043764;28;20111;-64
2022/01/26 06:40:11;;;;;;;38.45;14.43;;;;;;;-149.78;100.00;50534.03;5025273;28;20484;-64
2022/01/26 06:42:54;;;;;;;42.17;14.07;;;;;;;-149.78;100.00;50534.03;5042704;28;20055;-63
2022/01/26 06:45:27;;;;;;;38.50;13.68;;;;;;;-149.78;100.00;50518.38;5043300;28;20120;-64
2022/01/26 06:48:27;;;;;;;36.50;13.88;;;;;;;-149.78;100.00;50506.66;5042082;28;21408;-63
2022/01/26 06:50:38;;;;;;;38.28;13.82;;;;;;;-149.78;100.00;50518.38;5039982;28;20049;-63
2022/01/26 06:53:04;;;;;;;41.17;14.32;;;;;;;-149.78;100.00;50514.47;5042113;28;20067;-63
2022/01/26 06:55:30;;;;;;;37.88;14.27;;;;;;;-149.78;100.00;50551.63;5024517;28;20163;-63
2022/01/26 06:57:55;;;;;;;34.85;13.57;;;;;;;-149.78;100.00;50530.13;5042013;28;20498;-63
2022/01/26 07:00:21;;;;;;;36.53;14.60;;;;;;;-149.78;100.00;50520.34;5045306;28;20480;-64
2022/01/26 07:02:47;;;;;;;46.20;16.58;;;;;;;-149.78;100.00;50520.34;5043677;28;20047;-64
2022/01/26 07:05:13;;;;;;;40.28;15.80;;;;;;;-149.78;100.00;50510.56;5043493;28;20064;-63
2022/01/26 07:07:40;;;;;;;40.67;15.38;;;;;;;-149.78;100.00;50547.72;5042180;28;20041;-64
2022/01/26 07:10:07;;;;;;;37.85;14.25;;;;;;;-149.78;100.00;50498.81;5043270;28;20687;-64
2022/01/26 07:12:32;;;;;;;47.38;15.43;;;;;;;-149.78;100.00;50537.94;5051237;28;20123;-63
2022/01/26 07:23:05;;;;;;;33.05;13.48;;;;;;;-149.78;100.00;50537.94;5044263;28;20128;-63
2022/01/26 07:25:32;;;;;;;35.05;15.02;;;;;;;-149.78;100.00;50524.25;5043328;28;20043;-66
2022/01/26 07:27:59;;;;;;;32.80;12.70;;;;;;;-149.78;100.00;50534.03;5039012;28;20032;-63
2022/01/26 07:30:25;;;;;;;44.17;13.85;;;;;;;-149.78;100.00;50502.75;5041234;28;20041;-64
2022/01/26 07:32:51;;;;;;;38.92;13.90;;;;;;;-149.78;100.00;50487.09;5040515;28;20142;-61
2022/01/26 07:35:16;;;;;;;35.92;14.20;;;;;;;-149.78;100.00;50502.75;5041554;28;20040;-63
2022/01/26 07:37:47;;;;;;;29.77;12.70;;;;;;;-149.78;100.00;50512.50;5053287;28;21078;-62
2022/01/26 07:40:14;;;;;;;37.88;12.23;;;;;;;-149.78;100.00;50508.59;5062071;28;20043;-62
2022/01/26 07:42:41;;;;;;;32.35;11.60;;;;;;;-149.78;100.00;50518.38;5047037;28;20101;-62
2022/01/26 07:45:09;;;;;;;36.85;11.75;;;;;;;-149.78;100.00;50489.03;5041525;28;20037;-62
2022/01/26 07:47:37;;;;;;;28.73;11.80;;;;;;;-149.78;100.00;50492.97;5041749;28;20130;-61
2022/01/26 07:50:06;;;;;;;30.10;11.95;;;;;;;-149.78;100.00;50487.09;5041353;28;20033;-62
2022/01/26 07:52:37;;;;;;;24.80;11.65;;;;;;;-149.78;100.00;50526.22;5041900;28;20036;-62
2022/01/26 07:55:05;;;;;;;30.85;12.82;;;;;;;-149.78;100.00;50534.03;5045254;28;20039;-63
2022/01/26 07:57:30;;;;;;;31.05;12.18;;;;;;;-149.78;100.00;50510.56;5045825;28;20051;-67
2022/01/26 07:59:56;;;;;;;32.28;11.95;;;;;;;-149.78;100.00;50551.63;5043142;28;20029;-63
2022/01/26 08:02:23;;;;;;;32.08;13.30;;;;;;;-149.78;100.00;50526.22;5027031;28;20719;-62
2022/01/26 08:04:49;;;;;;;29.83;12.32;;;;;;;-149.78;100.00;50502.75;5043496;28;20041;-63
2022/01/26 08:07:17;;;;;;;32.80;11.35;;;;;;;-149.78;100.00;50573.16;5039998;28;20036;-64
2022/01/26 08:09:45;;;;;;;35.63;12.40;;;;;;;-149.78;100.00;50526.22;5041819;28;20060;-64
2022/01/26 08:12:14;;;;;;;27.77;11.48;;;;;;;-149.78;100.00;50537.94;5041564;28;20119;-64
2022/01/26 08:14:40;;;;;;;32.58;11.82;;;;;;;-149.78;100.00;50522.28;5038512;28;20526;-64
2022/01/26 08:17:06;;;;;;;33.78;12.57;;;;;;;-149.78;100.00;50510.56;5039859;28;20024;-64
2022/01/26 08:19:32;;;;;;;37.25;12.57;;;;;;;-149.78;100.00;50506.66;5040306;28;20033;-64
2022/01/26 08:22:00;;;;;;;27.70;11.43;;;;;;;-149.78;100.00;50522.28;5039850;28;20040;-64
2022/01/26 08:24:31;;;;;;;35.63;13.63;;;;;;;-149.78;100.00;50530.13;5040116;28;20040;-63
2022/01/26 08:27:03;;;;;;;26.05;12.18;;;;;;;-149.78;100.00;50514.47;5025073;28;20041;-63
2022/01/26 08:29:39;;;;;;;;;;;;;;;-149.78;100.00;50524.25;5042545;28;20484;-63
2022/01/26 08:32:05;;;;;;;38.25;10.65;;;;;;;-149.78;100.00;50557.50;5042666;28;19924;-63
2022/01/26 08:34:31;;;;;;;33.05;10.52;;;;;;;-149.78;100.00;50498.81;5043309;28;20129;-63
2022/01/26 08:36:57;;;;;;;27.05;9.52;;;;;;;-149.78;100.00;50571.19;5045324;28;21201;-63
2022/01/26 08:39:23;;;;;;;24.85;9.13;;;;;;;-149.78;100.00;50483.19;5026184;28;20056;-63
2022/01/26 08:41:48;;;;;;;23.17;7.97;;;;;;;-149.78;100.00;50518.38;5044542;28;20045;-63
2022/01/26 08:44:14;;;;;;;24.20;8.48;;;;;;;-149.78;100.00;50510.56;5044190;28;20040;-63
2022/01/26 08:46:41;;;;;;;22.35;8.10;;;;;;;-149.78;100.00;50520.34;5045012;28;20060;-63
2022/01/26 08:49:07;;;;;;;27.42;8.70;;;;;;;-149.78;100.00;50530.13;5043895;28;20044;-63
2022/01/26 08:51:34;;;;;;;31.80;10.98;;;;;;;-149.78;100.00;50506.66;5044912;28;20074;-63
2022/01/26 08:54:00;;;;;;;21.73;7.60;;;;;;;-149.78;100.00;50514.47;5045593;28;20598;-63
2022/01/26 08:56:27;;;;;;;22.42;7.70;;;;;;;-149.78;100.00;50541.84;5025946;28;20044;-63
2022/01/26 08:58:53;;;;;;;21.98;7.72;;;;;;;-149.78;100.00;50510.56;5044539;28;20080;-63
2022/01/26 09:01:19;;;;;;;24.95;6.95;;;;;;;-149.78;100.00;50549.69;5044071;28;20036;-63
2022/01/26 09:03:45;;;;;;;22.33;7.78;;;;;;;-149.78;100.00;50487.09;5044065;28;21290;-67
2022/01/26 09:06:11;;;;;;;23.65;7.45;;;;;;;-149.78;100.00;50520.34;5043295;28;20032;-67
2022/01/26 09:08:40;;;;;;;29.33;8.00;;;;;;;-149.78;100.00;50518.38;5043676;28;20028;-67
2022/01/26 09:11:06;;;;;;;25.63;7.47;;;;;;;-149.78;100.00;50557.50;5044136;28;20123;-67
2022/01/26 09:13:33;;;;;;;15.93;6.85;;;;;;;-149.78;100.00;50498.81;5059506;28;20131;-64
2022/01/26 09:16:06;;;;;;;16.13;6.95;;;;;;;-149.78;100.00;50498.81;5074580;28;20040;-63
2022/01/26 09:18:48;;;;;;;24.05;7.57;;;;;;;-149.78;100.00;50537.94;5074943;28;20044;-64
2022/01/26 09:21:14;;;;;;;16.23;6.50;;;;;;;-149.78;100.00;50483.19;5074583;28;20041;-63
2022/01/26 09:23:40;;;;;;;13.30;6.05;;;;;;;-149.78;100.00;50522.28;5074784;28;20032;-64
2022/01/26 09:26:06;;;;;;;19.55;6.30;;;;;;;-149.78;100.00;50494.91;5074530;28;20094;-64
2022/01/26 09:28:31;;;;;;;22.30;6.82;;;;;;;-149.78;100.00;50487.09;5074604;28;20044;-64
2022/01/26 09:30:57;;;;;;;19.95;6.75;;;;;;;-149.78;100.00;50510.56;5056962;28;20040;-63
2022/01/26 09:33:23;;;;;;;19.15;6.65;;;;;;;-149.78;100.00;50516.44;5074655;28;20555;-64
2022/01/26 09:35:49;;;;;;;22.10;7.05;;;;;;;-149.78;100.00;50502.75;5074444;28;20032;-63
2022/01/26 09:38:15;;;;;;;19.77;7.22;;;;;;;-149.78;100.00;50522.28;5074106;28;20062;-63
2022/01/26 09:40:40;;;;;;;18.08;7.22;;;;;;;-149.78;100.00;50516.44;5074411;28;20039;-63
2022/01/26 09:43:06;;;;;;;16.38;6.57;;;;;;;-149.78;100.00;50508.59;5074373;28;20036;-63
2022/01/26 09:45:34;;;;;;;21.23;7.25;;;;;;;-149.78;100.00;50467.53;5074234;28;20028;-63
2022/01/26 09:48:01;;;;;;;18.80;6.68;;;;;;;-149.78;100.00;50494.91;5074048;28;20062;-63
2022/01/26 09:50:27;;;;;;;20.83;6.60;;;;;;;-149.78;100.00;50504.69;5074029;28;20124;-63
2022/01/26 09:52:55;;;;;;;15.82;5.75;;;;;;;-149.78;100.00;50485.13;5074086;28;20123;-63
2022/01/26 09:55:21;;;;;;;14.48;6.50;;;;;;;-149.78;100.00;50491.00;5073831;28;20047;-63
2022/01/26 09:57:47;;;;;;;19.65;6.53;;;;;;;-149.78;100.00;50516.44;5073959;28;20464;-63
2022/01/26 10:00:13;;;;;;;18.08;5.93;;;;;;;-149.78;100.00;50483.19;5073662;28;20044;-63
2022/01/26 10:02:41;;;;;;;17.70;6.03;;;;;;;-149.78;100.00;50494.91;5073908;28;20484;-64
2022/01/26 10:05:10;;;;;;;17.27;6.15;;;;;;;-149.78;100.00;50502.75;5073845;28;20037;-63
2022/01/26 10:08:10;;;;;;;16.50;5.95;;;;;;;-149.78;100.00;50475.34;5073899;28;20039;-63
2022/01/26 10:16:28;;;;;;;16.85;5.45;;;;;;;-149.78;100.00;50491.00;5073702;28;20361;-63
2022/01/26 10:18:55;;;;;;;17.30;5.53;;;;;;;-149.78;100.00;50496.88;5072760;28;20040;-63
2022/01/26 10:21:21;;;;;;;13.75;5.43;;;;;;;-149.78;100.00;50498.81;5073434;28;20041;-64
2022/01/26 10:23:47;;;;;;;19.85;6.80;;;;;;;-149.78;100.00;50498.81;5073376;28;20039;-63
2022/01/26 10:26:19;;;;;;;17.83;5.35;;;;;;;-149.78;100.00;50494.91;5073343;28;20120;-63
2022/01/26 10:28:56;;;;;;;13.45;5.43;;;;;;;-149.78;100.00;50491.00;5073551;28;20032;-63
2022/01/26 10:31:22;;;;;;;16.15;5.38;;;;;;;-149.78;100.00;50481.22;5073411;28;20060;-63
2022/01/26 10:34:06;;;;;;;17.60;5.03;;;;;;;-149.78;100.00;50471.44;5073705;28;20060;-63
2022/01/26 10:36:38;;;;;;;12.90;5.03;;;;;;;-149.78;100.00;50471.44;5073684;28;20032;-63
2022/01/26 10:39:10;;;;;;;13.77;5.35;;;;;;;-149.78;100.00;50465.56;5073096;28;20048;-64
2022/01/26 10:41:37;;;;;;;10.50;4.50;;;;;;;-149.78;100.00;50477.31;5073266;28;20384;-63
2022/01/26 10:44:04;;;;;;;19.08;4.97;;;;;;;-149.78;100.00;50485.13;5073187;28;20040;-63
2022/01/26 10:46:38;;;;;;;8.20;3.95;;;;;;;-149.78;100.00;50471.44;5073047;28;20047;-63
2022/01/26 10:54:37;;;;;;;9.57;3.92;;;;;;;-149.78;100.00;50477.31;5072985;28;20418;-63
2022/01/26 10:57:08;;;;;;;9.73;3.47;;;;;;;-149.78;100.00;50475.34;5072844;28;20360;-63
2022/01/26 10:59:36;;;;;;;10.50;4.55;;;;;;;-149.78;100.00;50418.63;5056792;28;20081;-63
2022/01/26 11:02:04;;;;;;;7.63;3.53;;;;;;;-149.78;100.00;50449.94;5054690;28;20104;-63
2022/01/26 11:04:32;;;;;;;12.65;4.10;;;;;;;-149.78;100.00;50485.13;5072733;28;20028;-64
2022/01/26 11:06:58;;;;;;;10.10;3.45;;;;;;;-149.78;100.00;50432.31;5073038;28;20048;-68
2022/01/26 11:09:27;;;;;;;10.82;3.75;;;;;;;-149.78;100.00;50463.63;5072704;28;20090;-67
2022/01/26 11:12:04;;;;;;;7.10;3.20;;;;;;;-149.78;100.00;50463.63;5073143;28;20029;-67
2022/01/26 11:14:50;;;;;;;11.75;3.85;;;;;;;-149.78;100.00;50471.44;5073113;28;20372;-68
2022/01/26 11:17:33;;;;;;;11.80;3.80;;;;;;;-149.78;100.00;50463.63;5071618;28;20025;-68
2022/01/26 11:20:01;;;;;;;8.20;3.75;;;;;;;-149.78;100.00;50491.00;5072935;28;20107;-67
2022/01/26 11:22:30;;;;;;;6.72;3.22;;;;;;;-149.78;100.00;50463.63;5072818;28;20036;-67
2022/01/26 11:25:08;;;;;;;8.32;3.67;;;;;;;-149.78;100.00;50455.81;5073028;28;20060;-67
2022/01/26 11:27:37;;;;;;;7.20;3.38;;;;;;;-149.78;100.00;50463.63;5072960;28;20484;-68
2022/01/26 11:30:21;;;;;;;9.32;4.25;;;;;;;-149.78;100.00;50455.81;5073939;28;20037;-67
2022/01/26 11:32:56;;;;;;;8.15;3.60;;;;;;;-149.78;100.00;50467.53;5059140;28;20036;-67
2022/01/26 11:35:23;;;;;;;8.05;3.50;;;;;;;-149.78;100.00;50487.09;5076789;28;20519;-67
2022/01/26 11:38:06;;;;;;;9.70;3.92;;;;;;;-149.78;100.00;50440.16;5076704;28;20041;-67
2022/01/26 11:46:31;;;;;;;11.48;3.50;;;;;;;-149.78;100.00;50467.53;5076556;28;20040;-67
2022/01/26 11:49:05;;;;;;;7.13;3.33;;;;;;;-149.78;100.00;50471.44;5076717;28;20036;-68
2022/01/26 11:51:48;;;;;;;11.55;3.17;;;;;;;-149.78;100.00;50457.75;5076480;28;20035;-68
2022/01/26 11:54:24;;;;;;;10.02;3.20;;;;;;;-149.78;100.00;50440.16;5076492;28;20056;-68
2022/01/26 11:57:08;;;;;;;8.65;2.72;;;;;;;-149.78;100.00;50465.56;5076464;28;20505;-67
2022/01/26 11:59:41;;;;;;;10.27;3.45;;;;;;;-149.78;100.00;50455.81;5060330;28;20111;-67
2022/01/26 12:02:27;;;;;;;9.93;3.45;;;;;;;-149.78;100.00;50487.09;5076241;28;20476;-67
2022/01/26 12:04:59;;;;;;;6.45;3.38;;;;;;;-149.78;100.00;50487.09;5076134;28;20047;-67
2022/01/26 12:07:25;;;;;;;9.43;3.03;;;;;;;-149.78;100.00;50471.44;5076149;28;20113;-68
2022/01/26 12:09:52;;;;;;;6.85;2.90;;;;;;;-149.78;100.00;50467.53;5076089;28;20037;-67
2022/01/26 12:12:19;;;;;;;10.93;3.47;;;;;;;-149.78;100.00;50491.00;5076046;28;20041;-68
2022/01/26 12:15:02;;;;;;;5.35;2.95;;;;;;;-149.78;100.00;50483.19;5076041;28;20372;-63
2022/01/26 12:17:33;;;;;;;9.95;3.97;;;;;;;-149.78;100.00;50467.53;5075866;28;20448;-63
2022/01/26 12:32:03;;;;;;;10.00;2.90;;;;;;;-149.78;100.00;50498.81;5075813;28;20036;-63
2022/01/26 12:32:16;;;;;;;10.10;3.00;;;;;;;-149.78;100.00;50455.81;5075826;28;20107;-68
2022/01/26 12:35:09;;;;;;;7.05;3.30;;;;;;;-149.78;100.00;50487.09;5075642;28;20044;-67
2022/01/26 12:45:26;;;;;;;8.10;2.55;;;;;;;-149.78;100.00;50436.25;5075528;28;20035;-68
2022/01/26 12:47:54;;;;;;;5.80;2.42;;;;;;;-149.78;100.00;50444.06;5075431;28;20464;-68
2022/01/26 12:50:21;;;;;;;8.50;2.80;;;;;;;-149.78;100.00;50451.88;5075372;28;20464;-68
2022/01/26 12:52:49;;;;;;;9.25;3.33;;;;;;;-149.78;100.00;50467.53;5075630;28;20028;-67
2022/01/26 12:55:36;;;;;;;6.68;2.90;;;;;;;-149.78;100.00;50430.38;5075035;28;20071;-67
2022/01/26 12:58:03;;;;;;;8.35;2.55;;;;;;;-149.78;100.00;50436.25;5075196;28;20033;-67
2022/01/26 13:00:45;;;;;;;7.88;2.95;;;;;;;-149.78;100.00;50479.28;5074874;28;20050;-68
2022/01/26 13:03:16;;;;;;;5.32;2.40;;;;;;;-149.78;100.00;50447.97;5057376;28;20537;-67
2022/01/26 13:05:42;;;;;;;8.85;2.97;;;;;;;-149.78;100.00;50404.94;5075068;28;20119;-68
2022/01/26 13:08:10;;;;;;;7.82;2.58;;;;;;;-149.78;100.00;50440.16;5075174;28;20044;-68
2022/01/26 13:10:36;;;;;;;5.47;2.40;;;;;;;-149.78;100.00;50436.25;5056933;28;20086;-67
2022/01/26 13:13:10;;;;;;;7.18;2.40;;;;;;;-149.78;100.00;50447.97;5075023;28;20094;-67
2022/01/26 13:16:12;;;;;;;7.13;2.72;;;;;;;-149.78;100.00;50436.25;5074889;28;20034;-67
2022/01/26 13:18:59;;;;;;;7.28;3.08;;;;;;;-149.78;100.00;50436.25;5072659;28;20071;-67
2022/01/26 13:21:42;;;;;;;7.65;3.15;;;;;;;-149.78;100.00;50463.63;5074671;28;20041;-67
2022/01/26 13:24:35;;;;;;;7.68;3.00;;;;;;;-149.78;100.00;50436.25;5074700;28;20062;-67
2022/01/26 13:27:13;;;;;;;;;;;;;;;-149.78;100.00;50467.53;5075102;28;20035;-67
2022/01/26 13:30:00;;;;;;;9.68;3.38;;;;;;;-149.78;100.00;50459.72;5059635;28;19934;-67